sensor_id;sensor_type;location;lat;lon;timestamp;temperature;humidity
70149;DHT22;57514;52.164;5.282;2022-08-11T00:02:35;19.60;79.50
70149;DHT22;57514;52.164;5.282;2022-08-11T00:05:10;21.70;80.90
70149;DHT22;57514;52.164;5.282;2022-08-11T00:07:51;18.80;75.00
70149;DHT22;57514;52.164;5.282;2022-08-11T00:10:21;21.00;80.70
70149;DHT22;57514;52.164;5.282;2022-08-11T00:13:04;19.70;67.80
70149;DHT22;57514;52.164;5.282;2022-08-11T00:15:43;19.60;80.40
70149;DHT22;57514;52.164;5.282;2022-08-11T00:18:15;18.70;80.10
70149;DHT22;57514;52.164;5.282;2022-08-11T00:20:43;21.50;81.60
70149;DHT22;57514;52.164;5.282;2022-08-11T00:23:15;19.70;81.10
70149;DHT22;57514;52.164;5.282;2022-08-11T00:25:48;21.60;81.90
70149;DHT22;57514;52.164;5.282;2022-08-11T00:28:28;20.10;81.60
70149;DHT22;57514;52.164;5.282;2022-08-11T00:30:58;21.10;82.10
70149;DHT22;57514;52.164;5.282;2022-08-11T00:33:49;19.90;81.50
70149;DHT22;57514;52.164;5.282;2022-08-11T00:36:18;18.90;81.10
70149;DHT22;57514;52.164;5.282;2022-08-11T00:38:51;21.50;82.50
70149;DHT22;57514;52.164;5.282;2022-08-11T00:41:28;18.70;81.40
70149;DHT22;57514;52.164;5.282;2022-08-11T00:49:37;19.40;82.10
70149;DHT22;57514;52.164;5.282;2022-08-11T00:57:34;19.10;82.20
70149;DHT22;57514;52.164;5.282;2022-08-11T01:00:24;19.60;82.60
70149;DHT22;57514;52.164;5.282;2022-08-11T01:03:31;19.60;82.70
70149;DHT22;57514;52.164;5.282;2022-08-11T01:06:37;20.90;84.00
70149;DHT22;57514;52.164;5.282;2022-08-11T01:15:57;20.80;83.80
70149;DHT22;57514;52.164;5.282;2022-08-11T01:18:51;20.80;84.00
70149;DHT22;57514;52.164;5.282;2022-08-11T01:21:45;20.80;84.20
70149;DHT22;57514;52.164;5.282;2022-08-11T01:38:20;20.60;84.80
70149;DHT22;57514;52.164;5.282;2022-08-11T01:53:07;20.50;85.40
70149;DHT22;57514;52.164;5.282;2022-08-11T02:01:22;19.00;69.90
70149;DHT22;57514;52.164;5.282;2022-08-11T02:09:49;19.00;85.30
70149;DHT22;57514;52.164;5.282;2022-08-11T02:12:31;17.40;84.60
70149;DHT22;57514;52.164;5.282;2022-08-11T02:15:14;18.70;85.50
70149;DHT22;57514;52.164;5.282;2022-08-11T02:17:56;19.80;72.00
70149;DHT22;57514;52.164;5.282;2022-08-11T02:20:36;20.00;86.20
70149;DHT22;57514;52.164;5.282;2022-08-11T02:23:45;19.00;85.80
70149;DHT22;57514;52.164;5.282;2022-08-11T02:26:59;18.30;85.60
70149;DHT22;57514;52.164;5.282;2022-08-11T02:29:37;17.60;85.40
70149;DHT22;57514;52.164;5.282;2022-08-11T02:32:18;19.90;86.70
70149;DHT22;57514;52.164;5.282;2022-08-11T02:35:19;19.80;86.90
70149;DHT22;57514;52.164;5.282;2022-08-11T02:40:40;19.80;87.00
70149;DHT22;57514;52.164;5.282;2022-08-11T02:43:19;19.70;87.10
70149;DHT22;57514;52.164;5.282;2022-08-11T02:46:16;19.80;87.20
70149;DHT22;57514;52.164;5.282;2022-08-11T02:49:11;18.60;73.80
70149;DHT22;57514;52.164;5.282;2022-08-11T02:52:35;17.10;86.10
70149;DHT22;57514;52.164;5.282;2022-08-11T03:00:30;18.80;87.30
70149;DHT22;57514;52.164;5.282;2022-08-11T03:03:22;19.90;88.00
70149;DHT22;57514;52.164;5.282;2022-08-11T03:06:33;17.10;86.70
70149;DHT22;57514;52.164;5.282;2022-08-11T03:09:09;17.00;86.80
70149;DHT22;57514;52.164;5.282;2022-08-11T03:17:33;19.30;88.50
70149;DHT22;57514;52.164;5.282;2022-08-11T03:23:12;17.20;87.70
70149;DHT22;57514;52.164;5.282;2022-08-11T03:29:10;16.90;86.90
70149;DHT22;57514;52.164;5.282;2022-08-11T03:32:24;17.90;73.40
70149;DHT22;57514;52.164;5.282;2022-08-11T03:34:54;19.00;89.10
70149;DHT22;57514;52.164;5.282;2022-08-11T03:40:37;18.10;88.90
70149;DHT22;57514;52.164;5.282;2022-08-11T03:44:02;19.00;89.60
70149;DHT22;57514;52.164;5.282;2022-08-11T03:49:22;17.80;76.10
70149;DHT22;57514;52.164;5.282;2022-08-11T04:01:02;19.00;90.20
70149;DHT22;57514;52.164;5.282;2022-08-11T04:09:54;16.10;89.40
70149;DHT22;57514;52.164;5.282;2022-08-11T04:15:57;18.90;90.50
70149;DHT22;57514;52.164;5.282;2022-08-11T04:24:17;19.00;90.70
70149;DHT22;57514;52.164;5.282;2022-08-11T04:33:02;18.50;90.80
70149;DHT22;57514;52.164;5.282;2022-08-11T04:35:38;18.00;90.70
70149;DHT22;57514;52.164;5.282;2022-08-11T04:38:55;17.90;90.70
70149;DHT22;57514;52.164;5.282;2022-08-11T04:41:54;18.90;91.00
70149;DHT22;57514;52.164;5.282;2022-08-11T04:45:19;18.90;78.70
70149;DHT22;57514;52.164;5.282;2022-08-11T04:48:22;16.70;90.50
70149;DHT22;57514;52.164;5.282;2022-08-11T04:57:36;17.60;81.40
70149;DHT22;57514;52.164;5.282;2022-08-11T05:00:29;16.30;90.40
70149;DHT22;57514;52.164;5.282;2022-08-11T05:03:20;17.60;90.80
70149;DHT22;57514;52.164;5.282;2022-08-11T05:06:09;17.00;90.70
70149;DHT22;57514;52.164;5.282;2022-08-11T05:11:52;19.40;90.80
70149;DHT22;57514;52.164;5.282;2022-08-11T05:14:47;18.70;90.40
70149;DHT22;57514;52.164;5.282;2022-08-11T05:20:51;17.60;89.60
70149;DHT22;57514;52.164;5.282;2022-08-11T05:23:48;17.80;89.50
70149;DHT22;57514;52.164;5.282;2022-08-11T05:26:43;18.50;89.80
70149;DHT22;57514;52.164;5.282;2022-08-11T05:29:38;17.80;89.20
70149;DHT22;57514;52.164;5.282;2022-08-11T05:32:25;17.20;88.70
70149;DHT22;57514;52.164;5.282;2022-08-11T05:35:15;20.10;90.00
70149;DHT22;57514;52.164;5.282;2022-08-11T05:38:15;17.30;77.80
70149;DHT22;57514;52.164;5.282;2022-08-11T05:41:03;18.70;74.80
70149;DHT22;57514;52.164;5.282;2022-08-11T05:43:48;18.30;89.10
70149;DHT22;57514;52.164;5.282;2022-08-11T05:46:48;18.10;88.70
70149;DHT22;57514;52.164;5.282;2022-08-11T05:49:34;20.20;89.70
70149;DHT22;57514;52.164;5.282;2022-08-11T05:52:25;20.20;89.60
70149;DHT22;57514;52.164;5.282;2022-08-11T05:55:13;17.40;88.10
70149;DHT22;57514;52.164;5.282;2022-08-11T05:58:03;19.00;75.60
70149;DHT22;57514;52.164;5.282;2022-08-11T06:00:30;20.30;89.40
70149;DHT22;57514;52.164;5.282;2022-08-11T06:02:59;20.50;89.30
70149;DHT22;57514;52.164;5.282;2022-08-11T06:05:33;20.20;89.20
70149;DHT22;57514;52.164;5.282;2022-08-11T06:08:11;18.20;88.00
70149;DHT22;57514;52.164;5.282;2022-08-11T06:10:41;18.40;88.00
70149;DHT22;57514;52.164;5.282;2022-08-11T06:13:09;19.50;75.00
70149;DHT22;57514;52.164;5.282;2022-08-11T06:15:48;20.70;84.70
70149;DHT22;57514;52.164;5.282;2022-08-11T06:18:16;19.60;74.80
70149;DHT22;57514;52.164;5.282;2022-08-11T06:20:51;21.80;90.10
70149;DHT22;57514;52.164;5.282;2022-08-11T06:23:21;20.10;86.70
70149;DHT22;57514;52.164;5.282;2022-08-11T06:25:52;21.10;89.10
70149;DHT22;57514;52.164;5.282;2022-08-11T06:28:33;22.60;86.50
70149;DHT22;57514;52.164;5.282;2022-08-11T06:31:10;24.20;83.70
70149;DHT22;57514;52.164;5.282;2022-08-11T06:36:31;26.70;64.00
70149;DHT22;57514;52.164;5.282;2022-08-11T06:39:24;28.20;74.20
70149;DHT22;57514;52.164;5.282;2022-08-11T06:44:39;28.90;67.40
70149;DHT22;57514;52.164;5.282;2022-08-11T06:47:08;29.70;64.40
70149;DHT22;57514;52.164;5.282;2022-08-11T06:49:41;30.40;51.30
70149;DHT22;57514;52.164;5.282;2022-08-11T06:52:30;30.70;59.10
70149;DHT22;57514;52.164;5.282;2022-08-11T06:55:14;32.40;56.00
70149;DHT22;57514;52.164;5.282;2022-08-11T06:58:36;32.90;49.20
70149;DHT22;57514;52.164;5.282;2022-08-11T07:01:33;34.10;53.30
70149;DHT22;57514;52.164;5.282;2022-08-11T07:04:07;34.70;52.20
70149;DHT22;57514;52.164;5.282;2022-08-11T07:13:08;35.00;31.70
70149;DHT22;57514;52.164;5.282;2022-08-11T07:16:17;34.90;45.00
70149;DHT22;57514;52.164;5.282;2022-08-11T07:18:55;35.80;44.10
70149;DHT22;57514;52.164;5.282;2022-08-11T07:21:51;36.20;30.50
70149;DHT22;57514;52.164;5.282;2022-08-11T07:24:45;36.50;42.30
70149;DHT22;57514;52.164;5.282;2022-08-11T07:27:41;37.80;42.10
70149;DHT22;57514;52.164;5.282;2022-08-11T07:30:28;37.70;41.10
70149;DHT22;57514;52.164;5.282;2022-08-11T07:32:57;36.90;39.30
70149;DHT22;57514;52.164;5.282;2022-08-11T07:35:34;38.10;38.40
70149;DHT22;57514;52.164;5.282;2022-08-11T07:38:05;37.80;25.30
70149;DHT22;57514;52.164;5.282;2022-08-11T07:40:34;38.30;24.90
70149;DHT22;57514;52.164;5.282;2022-08-11T07:43:02;38.60;25.10
70149;DHT22;57514;52.164;5.282;2022-08-11T07:45:30;39.00;24.10
70149;DHT22;57514;52.164;5.282;2022-08-11T07:48:16;40.90;35.10
70149;DHT22;57514;52.164;5.282;2022-08-11T07:51:02;39.50;22.90
70149;DHT22;57514;52.164;5.282;2022-08-11T07:53:50;40.80;32.70
70149;DHT22;57514;52.164;5.282;2022-08-11T07:56:32;40.20;22.00
70149;DHT22;57514;52.164;5.282;2022-08-11T07:59:20;40.10;29.40
70149;DHT22;57514;52.164;5.282;2022-08-11T08:02:26;40.90;21.30
70149;DHT22;57514;52.164;5.282;2022-08-11T08:05:11;40.80;20.70
70149;DHT22;57514;52.164;5.282;2022-08-11T08:07:58;41.50;20.70
70149;DHT22;57514;52.164;5.282;2022-08-11T08:10:43;41.80;20.20
70149;DHT22;57514;52.164;5.282;2022-08-11T08:13:31;42.50;27.90
70149;DHT22;57514;52.164;5.282;2022-08-11T08:16:18;41.00;26.70
70149;DHT22;57514;52.164;5.282;2022-08-11T08:19:04;42.40;19.00
70149;DHT22;57514;52.164;5.282;2022-08-11T08:21:31;42.80;18.60
70149;DHT22;57514;52.164;5.282;2022-08-11T08:23:58;43.10;18.40
70149;DHT22;57514;52.164;5.282;2022-08-11T08:26:25;43.20;18.10
70149;DHT22;57514;52.164;5.282;2022-08-11T08:29:17;43.80;17.80
70149;DHT22;57514;52.164;5.282;2022-08-11T08:32:04;44.20;17.70
70149;DHT22;57514;52.164;5.282;2022-08-11T08:34:34;44.40;17.10
70149;DHT22;57514;52.164;5.282;2022-08-11T08:37:03;44.60;17.00
70149;DHT22;57514;52.164;5.282;2022-08-11T08:39:51;45.00;16.70
70149;DHT22;57514;52.164;5.282;2022-08-11T08:42:23;45.20;16.20
70149;DHT22;57514;52.164;5.282;2022-08-11T08:45:04;45.00;15.70
70149;DHT22;57514;52.164;5.282;2022-08-11T08:47:36;44.90;15.90
70149;DHT22;57514;52.164;5.282;2022-08-11T08:50:20;45.30;16.10
70149;DHT22;57514;52.164;5.282;2022-08-11T08:53:03;46.10;15.60
70149;DHT22;57514;52.164;5.282;2022-08-11T08:55:31;45.60;14.80
70149;DHT22;57514;52.164;5.282;2022-08-11T08:57:59;46.20;15.20
70149;DHT22;57514;52.164;5.282;2022-08-11T09:00:39;46.30;14.90
70149;DHT22;57514;52.164;5.282;2022-08-11T09:03:09;46.40;14.30
70149;DHT22;57514;52.164;5.282;2022-08-11T09:05:56;45.90;14.30
70149;DHT22;57514;52.164;5.282;2022-08-11T09:08:24;45.50;14.60
70149;DHT22;57514;52.164;5.282;2022-08-11T09:10:51;45.20;14.80
70149;DHT22;57514;52.164;5.282;2022-08-11T09:13:40;45.70;15.00
70149;DHT22;57514;52.164;5.282;2022-08-11T09:16:10;45.90;14.90
70149;DHT22;57514;52.164;5.282;2022-08-11T09:18:38;46.10;13.90
70149;DHT22;57514;52.164;5.282;2022-08-11T09:21:11;46.10;13.90
70149;DHT22;57514;52.164;5.282;2022-08-11T09:24:00;45.90;14.20
70149;DHT22;57514;52.164;5.282;2022-08-11T09:26:52;46.10;14.30
70149;DHT22;57514;52.164;5.282;2022-08-11T09:29:26;46.60;14.00
70149;DHT22;57514;52.164;5.282;2022-08-11T09:31:55;47.00;13.70
70149;DHT22;57514;52.164;5.282;2022-08-11T09:34:23;47.10;13.70
70149;DHT22;57514;52.164;5.282;2022-08-11T09:36:52;47.40;13.70
70149;DHT22;57514;52.164;5.282;2022-08-11T09:39:40;48.00;13.50
70149;DHT22;57514;52.164;5.282;2022-08-11T09:42:26;48.30;13.00
70149;DHT22;57514;52.164;5.282;2022-08-11T09:45:13;48.70;12.70
70149;DHT22;57514;52.164;5.282;2022-08-11T09:47:42;49.00;12.40
70149;DHT22;57514;52.164;5.282;2022-08-11T09:50:10;49.10;12.40
70149;DHT22;57514;52.164;5.282;2022-08-11T09:52:40;49.30;12.00
70149;DHT22;57514;52.164;5.282;2022-08-11T09:55:27;49.40;11.60
70149;DHT22;57514;52.164;5.282;2022-08-11T09:57:55;48.90;11.20
70149;DHT22;57514;52.164;5.282;2022-08-11T10:01:02;49.00;12.00
70149;DHT22;57514;52.164;5.282;2022-08-11T10:03:30;48.50;11.90
70149;DHT22;57514;52.164;5.282;2022-08-11T10:06:05;48.20;11.60
70149;DHT22;57514;52.164;5.282;2022-08-11T10:09:01;48.30;11.90
70149;DHT22;57514;52.164;5.282;2022-08-11T10:11:33;48.70;11.80
70149;DHT22;57514;52.164;5.282;2022-08-11T10:14:04;49.30;11.90
70149;DHT22;57514;52.164;5.282;2022-08-11T10:17:05;49.40;11.10
70149;DHT22;57514;52.164;5.282;2022-08-11T10:19:33;49.40;10.80
70149;DHT22;57514;52.164;5.282;2022-08-11T10:22:04;48.80;10.40
70149;DHT22;57514;52.164;5.282;2022-08-11T10:24:55;48.70;10.60
70149;DHT22;57514;52.164;5.282;2022-08-11T10:27:46;48.30;10.50
70149;DHT22;57514;52.164;5.282;2022-08-11T10:30:34;48.20;11.00
70149;DHT22;57514;52.164;5.282;2022-08-11T10:33:22;48.50;10.80
70149;DHT22;57514;52.164;5.282;2022-08-11T10:36:26;48.50;10.60
70149;DHT22;57514;52.164;5.282;2022-08-11T10:38:56;48.10;10.60
70149;DHT22;57514;52.164;5.282;2022-08-11T10:41:24;47.60;10.30
70149;DHT22;57514;52.164;5.282;2022-08-11T10:44:37;47.30;10.60
70149;DHT22;57514;52.164;5.282;2022-08-11T10:47:04;47.70;10.30
70149;DHT22;57514;52.164;5.282;2022-08-11T10:49:51;47.90;10.60
70149;DHT22;57514;52.164;5.282;2022-08-11T10:52:38;47.90;10.40
70149;DHT22;57514;52.164;5.282;2022-08-11T10:55:24;47.20;10.30
70149;DHT22;57514;52.164;5.282;2022-08-11T10:58:11;47.90;10.00
70149;DHT22;57514;52.164;5.282;2022-08-11T11:00:58;47.90;9.90
70149;DHT22;57514;52.164;5.282;2022-08-11T11:03:29;47.80;10.00
70149;DHT22;57514;52.164;5.282;2022-08-11T11:06:19;47.90;9.90
70149;DHT22;57514;52.164;5.282;2022-08-11T11:09:06;48.50;10.00
70149;DHT22;57514;52.164;5.282;2022-08-11T11:11:42;49.10;9.70
70149;DHT22;57514;52.164;5.282;2022-08-11T11:14:30;49.40;9.60
70149;DHT22;57514;52.164;5.282;2022-08-11T11:17:29;49.20;9.60
70149;DHT22;57514;52.164;5.282;2022-08-11T11:20:20;49.60;9.80
70149;DHT22;57514;52.164;5.282;2022-08-11T11:29:02;49.50;8.70
70149;DHT22;57514;52.164;5.282;2022-08-11T11:37:34;50.20;8.90
70149;DHT22;57514;52.164;5.282;2022-08-11T11:40:11;50.70;8.80
70149;DHT22;57514;52.164;5.282;2022-08-11T11:42:39;51.40;8.00
70149;DHT22;57514;52.164;5.282;2022-08-11T11:45:14;51.40;8.30
70149;DHT22;57514;52.164;5.282;2022-08-11T11:47:52;51.10;7.80
70149;DHT22;57514;52.164;5.282;2022-08-11T11:50:28;50.90;8.30
70149;DHT22;57514;52.164;5.282;2022-08-11T11:53:00;51.10;8.20
70149;DHT22;57514;52.164;5.282;2022-08-11T11:55:28;51.40;8.40
70149;DHT22;57514;52.164;5.282;2022-08-11T11:57:56;51.50;7.90
70149;DHT22;57514;52.164;5.282;2022-08-11T12:00:44;51.40;7.70
70149;DHT22;57514;52.164;5.282;2022-08-11T12:03:32;51.40;7.70
70149;DHT22;57514;52.164;5.282;2022-08-11T12:05:59;51.00;7.50
70149;DHT22;57514;52.164;5.282;2022-08-11T12:08:27;50.80;7.80
70149;DHT22;57514;52.164;5.282;2022-08-11T12:10:57;50.50;7.80
70149;DHT22;57514;52.164;5.282;2022-08-11T12:13:48;50.10;7.70
70149;DHT22;57514;52.164;5.282;2022-08-11T12:16:22;50.00;8.20
70149;DHT22;57514;52.164;5.282;2022-08-11T12:19:07;49.90;8.20
70149;DHT22;57514;52.164;5.282;2022-08-11T12:21:36;50.20;8.20
70149;DHT22;57514;52.164;5.282;2022-08-11T12:24:30;50.70;8.30
70149;DHT22;57514;52.164;5.282;2022-08-11T12:27:17;51.20;7.90
70149;DHT22;57514;52.164;5.282;2022-08-11T12:30:00;51.50;7.90
70149;DHT22;57514;52.164;5.282;2022-08-11T12:32:34;51.40;7.70
70149;DHT22;57514;52.164;5.282;2022-08-11T12:35:02;51.40;7.80
70149;DHT22;57514;52.164;5.282;2022-08-11T12:37:36;51.60;7.80
70149;DHT22;57514;52.164;5.282;2022-08-11T12:40:10;50.70;7.60
70149;DHT22;57514;52.164;5.282;2022-08-11T12:43:18;50.70;8.00
70149;DHT22;57514;52.164;5.282;2022-08-11T12:46:13;51.00;7.80
70149;DHT22;57514;52.164;5.282;2022-08-11T12:48:44;51.40;7.70
70149;DHT22;57514;52.164;5.282;2022-08-11T12:51:34;51.40;7.70
70149;DHT22;57514;52.164;5.282;2022-08-11T12:57:36;50.00;8.10
70149;DHT22;57514;52.164;5.282;2022-08-11T13:00:24;49.20;8.30
70149;DHT22;57514;52.164;5.282;2022-08-11T13:03:10;48.50;8.50
70149;DHT22;57514;52.164;5.282;2022-08-11T13:05:58;47.80;9.00
70149;DHT22;57514;52.164;5.282;2022-08-11T13:08:27;47.10;9.10
70149;DHT22;57514;52.164;5.282;2022-08-11T13:10:57;46.30;9.00
70149;DHT22;57514;52.164;5.282;2022-08-11T13:13:44;45.80;9.40
70149;DHT22;57514;52.164;5.282;2022-08-11T13:16:28;45.60;9.30
70149;DHT22;57514;52.164;5.282;2022-08-11T13:18:58;45.20;9.70
70149;DHT22;57514;52.164;5.282;2022-08-11T13:21:27;44.90;9.90
70149;DHT22;57514;52.164;5.282;2022-08-11T13:23:55;45.00;10.20
70149;DHT22;57514;52.164;5.282;2022-08-11T13:26:32;45.20;10.30
70149;DHT22;57514;52.164;5.282;2022-08-11T13:29:22;45.20;9.90
70149;DHT22;57514;52.164;5.282;2022-08-11T13:31:51;45.20;10.10
70149;DHT22;57514;52.164;5.282;2022-08-11T13:34:20;45.10;10.10
70149;DHT22;57514;52.164;5.282;2022-08-11T13:36:50;44.90;10.00
70149;DHT22;57514;52.164;5.282;2022-08-11T13:39:19;42.50;14.50
70149;DHT22;57514;52.164;5.282;2022-08-11T13:41:50;43.40;10.70
70149;DHT22;57514;52.164;5.282;2022-08-11T13:44:18;42.30;11.00
70149;DHT22;57514;52.164;5.282;2022-08-11T13:46:53;41.20;11.60
70149;DHT22;57514;52.164;5.282;2022-08-11T13:49:22;38.20;18.40
70149;DHT22;57514;52.164;5.282;2022-08-11T13:51:51;39.20;19.10
70149;DHT22;57514;52.164;5.282;2022-08-11T13:54:30;38.90;13.80
70149;DHT22;57514;52.164;5.282;2022-08-11T13:57:02;37.70;19.80
70149;DHT22;57514;52.164;5.282;2022-08-11T13:59:39;38.20;20.20
70149;DHT22;57514;52.164;5.282;2022-08-11T14:02:22;38.90;13.30
70149;DHT22;57514;52.164;5.282;2022-08-11T14:05:16;38.20;21.20
70149;DHT22;57514;52.164;5.282;2022-08-11T14:07:52;38.30;14.60
70149;DHT22;57514;52.164;5.282;2022-08-11T14:10:21;38.20;13.90
70149;DHT22;57514;52.164;5.282;2022-08-11T14:12:56;36.80;20.60
70149;DHT22;57514;52.164;5.282;2022-08-11T14:15:44;38.50;14.50
70149;DHT22;57514;52.164;5.282;2022-08-11T14:18:21;37.50;14.70
70149;DHT22;57514;52.164;5.282;2022-08-11T14:20:54;38.60;15.60
70149;DHT22;57514;52.164;5.282;2022-08-11T14:23:46;37.40;14.90
70149;DHT22;57514;52.164;5.282;2022-08-11T14:26:16;37.30;15.00
70149;DHT22;57514;52.164;5.282;2022-08-11T14:28:51;37.60;15.50
70149;DHT22;57514;52.164;5.282;2022-08-11T14:31:23;36.90;15.50
70149;DHT22;57514;52.164;5.282;2022-08-11T14:33:54;36.70;15.80
70149;DHT22;57514;52.164;5.282;2022-08-11T14:36:42;36.10;15.90
70149;DHT22;57514;52.164;5.282;2022-08-11T14:39:15;37.20;24.70
70149;DHT22;57514;52.164;5.282;2022-08-11T14:41:46;36.50;16.10
70149;DHT22;57514;52.164;5.282;2022-08-11T14:44:39;36.20;16.10
70149;DHT22;57514;52.164;5.282;2022-08-11T14:47:26;36.10;16.00
70149;DHT22;57514;52.164;5.282;2022-08-11T14:49:56;37.00;16.70
70149;DHT22;57514;52.164;5.282;2022-08-11T14:52:50;35.90;16.20
70149;DHT22;57514;52.164;5.282;2022-08-11T14:55:18;37.00;26.30
70149;DHT22;57514;52.164;5.282;2022-08-11T14:58:04;37.10;25.40
70149;DHT22;57514;52.164;5.282;2022-08-11T15:00:34;35.60;24.60
70149;DHT22;57514;52.164;5.282;2022-08-11T15:03:03;35.50;24.60
70149;DHT22;57514;52.164;5.282;2022-08-11T15:05:50;34.50;24.10
70149;DHT22;57514;52.164;5.282;2022-08-11T15:08:35;34.00;24.40
70149;DHT22;57514;52.164;5.282;2022-08-11T15:11:28;35.40;25.60
70149;DHT22;57514;52.164;5.282;2022-08-11T15:14:14;36.30;26.40
70149;DHT22;57514;52.164;5.282;2022-08-11T15:17:08;35.10;21.30
70149;DHT22;57514;52.164;5.282;2022-08-11T15:19:39;36.00;26.50
70149;DHT22;57514;52.164;5.282;2022-08-11T15:22:27;33.60;25.40
70149;DHT22;57514;52.164;5.282;2022-08-11T15:25:12;34.10;26.10
70149;DHT22;57514;52.164;5.282;2022-08-11T15:27:42;35.30;27.10
70149;DHT22;57514;52.164;5.282;2022-08-11T15:30:30;35.30;27.20
70149;DHT22;57514;52.164;5.282;2022-08-11T15:33:17;34.20;17.10
70149;DHT22;57514;52.164;5.282;2022-08-11T15:36:06;35.00;17.90
70149;DHT22;57514;52.164;5.282;2022-08-11T15:39:02;35.20;28.20
70149;DHT22;57514;52.164;5.282;2022-08-11T15:41:39;34.80;28.20
70149;DHT22;57514;52.164;5.282;2022-08-11T15:44:32;33.90;17.60
70149;DHT22;57514;52.164;5.282;2022-08-11T15:47:48;32.60;27.40
70149;DHT22;57514;52.164;5.282;2022-08-11T15:50:32;34.50;28.80
70149;DHT22;57514;52.164;5.282;2022-08-11T15:53:01;35.00;19.80
70149;DHT22;57514;52.164;5.282;2022-08-11T15:55:29;34.70;29.50
70149;DHT22;57514;52.164;5.282;2022-08-11T15:58:01;32.00;28.10
70149;DHT22;57514;52.164;5.282;2022-08-11T16:00:48;33.30;19.00
70149;DHT22;57514;52.164;5.282;2022-08-11T16:03:39;32.90;19.60
70149;DHT22;57514;52.164;5.282;2022-08-11T16:09:19;34.40;30.70
70149;DHT22;57514;52.164;5.282;2022-08-11T16:11:48;32.80;19.40
70149;DHT22;57514;52.164;5.282;2022-08-11T16:14:18;33.80;30.80
70149;DHT22;57514;52.164;5.282;2022-08-11T16:17:06;33.00;24.20
70149;DHT22;57514;52.164;5.282;2022-08-11T16:19:34;33.00;20.20
70149;DHT22;57514;52.164;5.282;2022-08-11T16:22:05;32.60;20.10
70149;DHT22;57514;52.164;5.282;2022-08-11T16:24:39;33.20;31.60
70149;DHT22;57514;52.164;5.282;2022-08-11T16:27:31;32.50;31.40
70149;DHT22;57514;52.164;5.282;2022-08-11T16:30:01;31.00;30.70
70149;DHT22;57514;52.164;5.282;2022-08-11T16:32:29;32.20;31.70
70149;DHT22;57514;52.164;5.282;2022-08-11T16:35:00;32.40;32.00
70149;DHT22;57514;52.164;5.282;2022-08-11T16:37:46;33.20;32.90
70149;DHT22;57514;52.164;5.282;2022-08-11T16:40:32;32.20;32.40
70149;DHT22;57514;52.164;5.282;2022-08-11T16:43:00;33.60;33.60
70149;DHT22;57514;52.164;5.282;2022-08-11T16:45:47;31.80;21.90
70149;DHT22;57514;52.164;5.282;2022-08-11T16:48:35;30.70;32.00
70149;DHT22;57514;52.164;5.282;2022-08-11T16:51:06;33.30;25.00
70149;DHT22;57514;52.164;5.282;2022-08-11T16:53:33;32.80;34.00
70149;DHT22;57514;52.164;5.282;2022-08-11T16:56:26;31.20;33.00
70149;DHT22;57514;52.164;5.282;2022-08-11T16:58:55;33.20;34.60
70149;DHT22;57514;52.164;5.282;2022-08-11T17:01:44;30.60;22.80
70149;DHT22;57514;52.164;5.282;2022-08-11T17:04:19;30.40;32.80
70149;DHT22;57514;52.164;5.282;2022-08-11T17:07:07;33.00;35.10
70149;DHT22;57514;52.164;5.282;2022-08-11T17:10:17;32.50;34.80
70149;DHT22;57514;52.164;5.282;2022-08-11T17:13:23;31.70;22.70
70149;DHT22;57514;52.164;5.282;2022-08-11T17:15:52;30.30;33.60
70149;DHT22;57514;52.164;5.282;2022-08-11T17:18:53;30.30;22.80
70149;DHT22;57514;52.164;5.282;2022-08-11T17:21:35;32.10;35.60
70149;DHT22;57514;52.164;5.282;2022-08-11T17:24:06;32.20;36.10
70149;DHT22;57514;52.164;5.282;2022-08-11T17:26:44;30.70;35.20
70149;DHT22;57514;52.164;5.282;2022-08-11T17:31:50;31.60;25.10
70149;DHT22;57514;52.164;5.282;2022-08-11T17:34:38;29.60;27.70
70149;DHT22;57514;52.164;5.282;2022-08-11T17:37:24;32.40;25.70
70149;DHT22;57514;52.164;5.282;2022-08-11T17:39:53;32.20;37.20
70149;DHT22;57514;52.164;5.282;2022-08-11T17:42:22;30.60;23.50
70149;DHT22;57514;52.164;5.282;2022-08-11T17:45:09;30.20;35.90
70149;DHT22;57514;52.164;5.282;2022-08-11T17:47:55;30.80;23.60
70149;DHT22;57514;52.164;5.282;2022-08-11T17:53:10;31.90;37.70
70149;DHT22;57514;52.164;5.282;2022-08-11T17:55:57;30.80;37.00
70149;DHT22;57514;52.164;5.282;2022-08-11T17:58:43;31.90;38.00
70149;DHT22;57514;52.164;5.282;2022-08-11T18:01:39;31.40;37.80
70149;DHT22;57514;52.164;5.282;2022-08-11T18:04:11;30.50;24.40
70149;DHT22;57514;52.164;5.282;2022-08-11T18:06:39;29.10;36.20
70149;DHT22;57514;52.164;5.282;2022-08-11T18:09:13;29.10;36.40
70149;DHT22;57514;52.164;5.282;2022-08-11T18:12:00;29.90;37.30
70149;DHT22;57514;52.164;5.282;2022-08-11T18:14:49;30.00;24.70
70149;DHT22;57514;52.164;5.282;2022-08-11T18:17:36;31.00;38.00
70149;DHT22;57514;52.164;5.282;2022-08-11T18:20:22;29.80;25.00
70149;DHT22;57514;52.164;5.282;2022-08-11T18:23:13;30.90;39.00
70149;DHT22;57514;52.164;5.282;2022-08-11T18:26:15;29.60;25.30
70149;DHT22;57514;52.164;5.282;2022-08-11T18:29:02;28.20;27.50
70149;DHT22;57514;52.164;5.282;2022-08-11T18:31:49;30.20;36.60
70149;DHT22;57514;52.164;5.282;2022-08-11T18:34:49;28.40;32.90
70149;DHT22;57514;52.164;5.282;2022-08-11T18:37:35;30.30;36.00
70149;DHT22;57514;52.164;5.282;2022-08-11T18:40:25;29.20;26.30
70149;DHT22;57514;52.164;5.282;2022-08-11T18:43:12;27.60;38.70
70149;DHT22;57514;52.164;5.282;2022-08-11T18:46:05;28.80;25.20
70149;DHT22;57514;52.164;5.282;2022-08-11T18:48:55;30.20;41.40
70149;DHT22;57514;52.164;5.282;2022-08-11T18:51:47;29.70;41.40
70149;DHT22;57514;52.164;5.282;2022-08-11T18:54:36;28.90;38.40
70149;DHT22;57514;52.164;5.282;2022-08-11T18:57:23;27.80;40.70
70149;DHT22;57514;52.164;5.282;2022-08-11T19:00:24;28.40;27.70
70149;DHT22;57514;52.164;5.282;2022-08-11T19:03:12;27.60;41.40
70149;DHT22;57514;52.164;5.282;2022-08-11T19:06:14;28.10;28.20
70149;DHT22;57514;52.164;5.282;2022-08-11T19:09:09;28.10;28.40
70149;DHT22;57514;52.164;5.282;2022-08-11T19:11:56;26.40;41.40
70149;DHT22;57514;52.164;5.282;2022-08-11T19:14:44;26.60;42.30
70149;DHT22;57514;52.164;5.282;2022-08-11T19:17:30;27.50;43.70
70149;DHT22;57514;52.164;5.282;2022-08-11T19:20:19;27.30;44.40
70149;DHT22;57514;52.164;5.282;2022-08-11T19:23:08;27.30;44.90
70149;DHT22;57514;52.164;5.282;2022-08-11T19:25:56;27.40;31.20
70149;DHT22;57514;52.164;5.282;2022-08-11T19:28:44;27.10;41.30
70149;DHT22;57514;52.164;5.282;2022-08-11T19:31:30;25.60;31.40
70149;DHT22;57514;52.164;5.282;2022-08-11T19:34:18;26.50;46.50
70149;DHT22;57514;52.164;5.282;2022-08-11T19:37:04;26.80;33.70
70149;DHT22;57514;52.164;5.282;2022-08-11T19:39:58;26.70;32.70
70149;DHT22;57514;52.164;5.282;2022-08-11T19:42:45;26.60;46.10
70149;DHT22;57514;52.164;5.282;2022-08-11T19:45:51;25.00;39.10
70149;DHT22;57514;52.164;5.282;2022-08-11T19:51:23;27.30;49.80